Archival Weather

Dewar Lakes

Dewar Lakes, Canada (CWUW)

Report from: Friday, May 26, 2023 9:00 AM EDT
Current time: Monday, July 22, 2024 7:40 AM EDT

Current weather – Weather history – Daily summaries
Weather forecast

Present weatherSM
Temperature-15.0°C (5.0°F)
Wind chill-26.0°C (-14.7°F)
Dew point-17.0°C (1.4°F)
Winds 16 kts (8.2 m/s, 18.4 mph) West-Northwest (290°)
Visibility0 ft. (0 m)
Altimeter29.64 in.Hg (1004 mB)
Relative humidity85 %
Density altitude-3,435 ft. (-1,047 m)
Remarks Fully automated report
Flight conditions Low Instrument Meteorological Conditions
Raw dataCWUW 261300Z AUTO 29016KT ////SM ////// M15/M17 A2964
An error has occurred. This application may no longer respond until reloaded. Reload 🗙